sensor_id;sensor_type;location;lat;lon;timestamp;temperature;humidity
32097;DHT22;18610;49.916;8.284;2022-12-07T00:01:51;4.50;99.90
32097;DHT22;18610;49.916;8.284;2022-12-07T00:04:18;4.50;99.90
32097;DHT22;18610;49.916;8.284;2022-12-07T00:06:50;4.60;99.90
32097;DHT22;18610;49.916;8.284;2022-12-07T00:09:18;4.60;99.90
32097;DHT22;18610;49.916;8.284;2022-12-07T00:11:48;4.60;99.90
32097;DHT22;18610;49.916;8.284;2022-12-07T00:14:16;4.70;99.90
32097;DHT22;18610;49.916;8.284;2022-12-07T00:16:43;4.70;99.90
32097;DHT22;18610;49.916;8.284;2022-12-07T00:19:13;4.70;99.90
32097;DHT22;18610;49.916;8.284;2022-12-07T00:21:40;4.70;99.90
32097;DHT22;18610;49.916;8.284;2022-12-07T00:24:09;4.70;99.90
32097;DHT22;18610;49.916;8.284;2022-12-07T00:26:37;4.70;99.90
32097;DHT22;18610;49.916;8.284;2022-12-07T00:29:07;4.70;99.90
32097;DHT22;18610;49.916;8.284;2022-12-07T00:31:35;4.60;99.90
32097;DHT22;18610;49.916;8.284;2022-12-07T00:34:05;4.60;99.90
32097;DHT22;18610;49.916;8.284;2022-12-07T00:36:32;4.60;99.90
32097;DHT22;18610;49.916;8.284;2022-12-07T00:39:00;4.70;99.90
32097;DHT22;18610;49.916;8.284;2022-12-07T00:41:29;4.60;99.90
32097;DHT22;18610;49.916;8.284;2022-12-07T00:43:56;4.60;99.90
32097;DHT22;18610;49.916;8.284;2022-12-07T00:46:24;4.60;99.90
32097;DHT22;18610;49.916;8.284;2022-12-07T00:48:51;4.50;99.90
32097;DHT22;18610;49.916;8.284;2022-12-07T00:51:20;4.50;99.90
32097;DHT22;18610;49.916;8.284;2022-12-07T00:53:47;4.50;99.90
32097;DHT22;18610;49.916;8.284;2022-12-07T00:56:15;4.50;99.90
32097;DHT22;18610;49.916;8.284;2022-12-07T00:58:44;4.50;99.90
32097;DHT22;18610;49.916;8.284;2022-12-07T01:01:15;4.60;99.90
32097;DHT22;18610;49.916;8.284;2022-12-07T01:03:42;4.60;99.90
32097;DHT22;18610;49.916;8.284;2022-12-07T01:06:09;4.60;99.90
32097;DHT22;18610;49.916;8.284;2022-12-07T01:08:35;4.60;99.90
32097;DHT22;18610;49.916;8.284;2022-12-07T01:11:04;4.60;99.90
32097;DHT22;18610;49.916;8.284;2022-12-07T01:13:32;4.60;99.90
32097;DHT22;18610;49.916;8.284;2022-12-07T01:16:03;4.60;99.90
32097;DHT22;18610;49.916;8.284;2022-12-07T01:18:32;4.60;99.90
32097;DHT22;18610;49.916;8.284;2022-12-07T01:21:01;4.60;99.90
32097;DHT22;18610;49.916;8.284;2022-12-07T01:23:28;4.60;99.90
32097;DHT22;18610;49.916;8.284;2022-12-07T01:25:55;4.60;99.90
32097;DHT22;18610;49.916;8.284;2022-12-07T01:28:22;4.60;99.90
32097;DHT22;18610;49.916;8.284;2022-12-07T01:31:02;4.60;99.90
32097;DHT22;18610;49.916;8.284;2022-12-07T01:33:31;4.60;99.90
32097;DHT22;18610;49.916;8.284;2022-12-07T01:36:01;4.60;99.90
32097;DHT22;18610;49.916;8.284;2022-12-07T01:38:29;4.60;99.90
32097;DHT22;18610;49.916;8.284;2022-12-07T01:40:56;4.70;99.90
32097;DHT22;18610;49.916;8.284;2022-12-07T01:43:25;4.70;99.90
32097;DHT22;18610;49.916;8.284;2022-12-07T01:45:53;4.60;99.90
32097;DHT22;18610;49.916;8.284;2022-12-07T01:48:25;4.60;99.90
32097;DHT22;18610;49.916;8.284;2022-12-07T01:50:53;4.60;99.90
32097;DHT22;18610;49.916;8.284;2022-12-07T01:53:21;4.60;99.90
32097;DHT22;18610;49.916;8.284;2022-12-07T01:55:52;4.60;99.90
32097;DHT22;18610;49.916;8.284;2022-12-07T01:58:20;4.60;99.90
32097;DHT22;18610;49.916;8.284;2022-12-07T02:00:47;4.50;99.90
32097;DHT22;18610;49.916;8.284;2022-12-07T02:03:18;4.50;99.90
32097;DHT22;18610;49.916;8.284;2022-12-07T02:05:48;4.50;99.90
32097;DHT22;18610;49.916;8.284;2022-12-07T02:08:16;4.50;99.90
32097;DHT22;18610;49.916;8.284;2022-12-07T02:10:44;4.40;99.90
32097;DHT22;18610;49.916;8.284;2022-12-07T02:13:12;4.40;99.90
32097;DHT22;18610;49.916;8.284;2022-12-07T02:15:55;4.40;99.90
32097;DHT22;18610;49.916;8.284;2022-12-07T02:18:32;4.40;99.90
32097;DHT22;18610;49.916;8.284;2022-12-07T02:21:09;4.40;99.90
32097;DHT22;18610;49.916;8.284;2022-12-07T02:23:52;4.40;99.90
32097;DHT22;18610;49.916;8.284;2022-12-07T02:26:47;4.50;99.90
32097;DHT22;18610;49.916;8.284;2022-12-07T02:29:23;4.50;99.90
32097;DHT22;18610;49.916;8.284;2022-12-07T02:31:54;4.50;99.90
32097;DHT22;18610;49.916;8.284;2022-12-07T02:34:29;4.50;99.90
32097;DHT22;18610;49.916;8.284;2022-12-07T02:37:02;4.50;99.90
32097;DHT22;18610;49.916;8.284;2022-12-07T02:39:38;4.50;99.90
32097;DHT22;18610;49.916;8.284;2022-12-07T02:42:13;4.50;99.90
32097;DHT22;18610;49.916;8.284;2022-12-07T02:44:42;4.50;99.90
32097;DHT22;18610;49.916;8.284;2022-12-07T02:47:13;4.50;99.90
32097;DHT22;18610;49.916;8.284;2022-12-07T02:49:42;4.50;99.90
32097;DHT22;18610;49.916;8.284;2022-12-07T02:52:09;4.50;99.90
32097;DHT22;18610;49.916;8.284;2022-12-07T02:54:35;4.50;99.90
32097;DHT22;18610;49.916;8.284;2022-12-07T02:57:09;4.50;99.90
32097;DHT22;18610;49.916;8.284;2022-12-07T02:59:49;4.50;99.90
32097;DHT22;18610;49.916;8.284;2022-12-07T03:02:27;4.60;99.90
32097;DHT22;18610;49.916;8.284;2022-12-07T03:05:12;4.60;99.90
32097;DHT22;18610;49.916;8.284;2022-12-07T03:07:44;4.60;99.90
32097;DHT22;18610;49.916;8.284;2022-12-07T03:10:20;4.60;99.90
32097;DHT22;18610;49.916;8.284;2022-12-07T03:12:55;4.60;99.90
32097;DHT22;18610;49.916;8.284;2022-12-07T03:15:27;4.70;99.90
32097;DHT22;18610;49.916;8.284;2022-12-07T03:17:56;4.70;99.90
32097;DHT22;18610;49.916;8.284;2022-12-07T03:20:26;4.70;99.90
32097;DHT22;18610;49.916;8.284;2022-12-07T03:22:54;4.70;99.90
32097;DHT22;18610;49.916;8.284;2022-12-07T03:25:21;4.70;99.90
32097;DHT22;18610;49.916;8.284;2022-12-07T03:27:52;4.80;99.90
32097;DHT22;18610;49.916;8.284;2022-12-07T03:30:23;4.80;99.90
32097;DHT22;18610;49.916;8.284;2022-12-07T03:32:56;4.80;99.90
32097;DHT22;18610;49.916;8.284;2022-12-07T03:35:27;4.80;99.90
32097;DHT22;18610;49.916;8.284;2022-12-07T03:37:58;4.80;99.90
32097;DHT22;18610;49.916;8.284;2022-12-07T03:40:30;4.90;99.90
32097;DHT22;18610;49.916;8.284;2022-12-07T03:43:00;4.80;99.90
32097;DHT22;18610;49.916;8.284;2022-12-07T03:45:31;4.80;99.90
32097;DHT22;18610;49.916;8.284;2022-12-07T03:48:05;4.90;99.90
32097;DHT22;18610;49.916;8.284;2022-12-07T03:50:44;4.90;99.90
32097;DHT22;18610;49.916;8.284;2022-12-07T03:53:19;4.90;99.90
32097;DHT22;18610;49.916;8.284;2022-12-07T03:55:49;4.90;99.90
32097;DHT22;18610;49.916;8.284;2022-12-07T03:58:19;4.90;99.90
32097;DHT22;18610;49.916;8.284;2022-12-07T04:00:47;4.90;99.90
32097;DHT22;18610;49.916;8.284;2022-12-07T04:03:16;4.90;99.90
32097;DHT22;18610;49.916;8.284;2022-12-07T04:05:44;4.80;99.90
32097;DHT22;18610;49.916;8.284;2022-12-07T04:08:11;4.80;99.90
32097;DHT22;18610;49.916;8.284;2022-12-07T04:10:38;4.80;99.90
32097;DHT22;18610;49.916;8.284;2022-12-07T04:13:05;4.80;99.90
32097;DHT22;18610;49.916;8.284;2022-12-07T04:15:32;4.80;99.90
32097;DHT22;18610;49.916;8.284;2022-12-07T04:17:58;4.80;99.90
32097;DHT22;18610;49.916;8.284;2022-12-07T04:20:27;4.80;99.90
32097;DHT22;18610;49.916;8.284;2022-12-07T04:22:53;4.80;99.90
32097;DHT22;18610;49.916;8.284;2022-12-07T04:25:21;4.80;99.90
32097;DHT22;18610;49.916;8.284;2022-12-07T04:27:47;4.80;99.90
32097;DHT22;18610;49.916;8.284;2022-12-07T04:30:14;4.80;99.90
32097;DHT22;18610;49.916;8.284;2022-12-07T04:32:41;4.90;99.90
32097;DHT22;18610;49.916;8.284;2022-12-07T04:35:09;4.90;99.90
32097;DHT22;18610;49.916;8.284;2022-12-07T04:37:37;4.90;99.90
32097;DHT22;18610;49.916;8.284;2022-12-07T04:40:07;4.90;99.90
32097;DHT22;18610;49.916;8.284;2022-12-07T04:42:34;4.90;99.90
32097;DHT22;18610;49.916;8.284;2022-12-07T04:45:00;4.90;99.90
32097;DHT22;18610;49.916;8.284;2022-12-07T04:47:27;4.90;99.90
32097;DHT22;18610;49.916;8.284;2022-12-07T04:49:54;4.90;99.90
32097;DHT22;18610;49.916;8.284;2022-12-07T04:52:21;4.90;99.90
32097;DHT22;18610;49.916;8.284;2022-12-07T04:54:49;4.90;99.90
32097;DHT22;18610;49.916;8.284;2022-12-07T04:57:16;4.90;99.90
32097;DHT22;18610;49.916;8.284;2022-12-07T04:59:42;4.90;99.90
32097;DHT22;18610;49.916;8.284;2022-12-07T05:02:09;4.90;99.90
32097;DHT22;18610;49.916;8.284;2022-12-07T05:04:36;4.90;99.90
32097;DHT22;18610;49.916;8.284;2022-12-07T05:07:03;5.00;99.90
32097;DHT22;18610;49.916;8.284;2022-12-07T05:09:29;5.00;99.90
32097;DHT22;18610;49.916;8.284;2022-12-07T05:11:58;5.00;99.90
32097;DHT22;18610;49.916;8.284;2022-12-07T05:14:25;5.00;99.90
32097;DHT22;18610;49.916;8.284;2022-12-07T05:16:52;5.00;99.90
32097;DHT22;18610;49.916;8.284;2022-12-07T05:19:19;5.00;99.90
32097;DHT22;18610;49.916;8.284;2022-12-07T05:21:46;5.00;99.90
32097;DHT22;18610;49.916;8.284;2022-12-07T05:24:14;5.00;99.90
32097;DHT22;18610;49.916;8.284;2022-12-07T05:26:42;5.10;99.90
32097;DHT22;18610;49.916;8.284;2022-12-07T05:29:12;5.00;99.90
32097;DHT22;18610;49.916;8.284;2022-12-07T05:31:39;5.10;99.90
32097;DHT22;18610;49.916;8.284;2022-12-07T05:34:06;5.10;99.90
32097;DHT22;18610;49.916;8.284;2022-12-07T05:36:33;5.10;99.90
32097;DHT22;18610;49.916;8.284;2022-12-07T05:39:01;5.10;99.90
32097;DHT22;18610;49.916;8.284;2022-12-07T05:41:28;5.10;99.90
32097;DHT22;18610;49.916;8.284;2022-12-07T05:44:13;5.10;99.90
32097;DHT22;18610;49.916;8.284;2022-12-07T05:46:40;5.10;99.90
32097;DHT22;18610;49.916;8.284;2022-12-07T05:49:07;5.10;99.90
32097;DHT22;18610;49.916;8.284;2022-12-07T05:51:33;5.10;99.90
32097;DHT22;18610;49.916;8.284;2022-12-07T05:54:00;5.10;99.90
32097;DHT22;18610;49.916;8.284;2022-12-07T05:56:27;5.10;99.90
32097;DHT22;18610;49.916;8.284;2022-12-07T05:58:54;5.10;99.90
32097;DHT22;18610;49.916;8.284;2022-12-07T06:01:40;5.10;99.90
32097;DHT22;18610;49.916;8.284;2022-12-07T06:04:07;5.10;99.90
32097;DHT22;18610;49.916;8.284;2022-12-07T06:06:33;5.10;99.90
32097;DHT22;18610;49.916;8.284;2022-12-07T06:09:00;5.10;99.90
32097;DHT22;18610;49.916;8.284;2022-12-07T06:11:27;5.10;99.90
32097;DHT22;18610;49.916;8.284;2022-12-07T06:14:12;5.10;99.90
32097;DHT22;18610;49.916;8.284;2022-12-07T06:16:40;5.10;99.90
32097;DHT22;18610;49.916;8.284;2022-12-07T06:19:07;5.10;99.90
32097;DHT22;18610;49.916;8.284;2022-12-07T06:21:33;5.10;99.90
32097;DHT22;18610;49.916;8.284;2022-12-07T06:24:00;5.10;99.90
32097;DHT22;18610;49.916;8.284;2022-12-07T06:26:27;5.10;99.90
32097;DHT22;18610;49.916;8.284;2022-12-07T06:28:54;5.10;99.90
32097;DHT22;18610;49.916;8.284;2022-12-07T06:31:21;5.20;99.90
32097;DHT22;18610;49.916;8.284;2022-12-07T06:33:49;5.10;99.90
32097;DHT22;18610;49.916;8.284;2022-12-07T06:36:16;5.10;99.90
32097;DHT22;18610;49.916;8.284;2022-12-07T06:38:43;5.10;99.90
32097;DHT22;18610;49.916;8.284;2022-12-07T06:41:09;5.10;99.90
32097;DHT22;18610;49.916;8.284;2022-12-07T06:43:36;5.10;99.90
32097;DHT22;18610;49.916;8.284;2022-12-07T06:46:04;5.10;99.90
32097;DHT22;18610;49.916;8.284;2022-12-07T06:48:30;5.10;99.90
32097;DHT22;18610;49.916;8.284;2022-12-07T06:50:58;5.10;99.90
32097;DHT22;18610;49.916;8.284;2022-12-07T06:53:25;5.10;99.90
32097;DHT22;18610;49.916;8.284;2022-12-07T06:55:52;5.10;99.90
32097;DHT22;18610;49.916;8.284;2022-12-07T06:58:19;5.00;99.90
32097;DHT22;18610;49.916;8.284;2022-12-07T07:00:47;5.10;99.90
32097;DHT22;18610;49.916;8.284;2022-12-07T07:03:14;5.10;99.90
32097;DHT22;18610;49.916;8.284;2022-12-07T07:05:41;5.10;99.90
32097;DHT22;18610;49.916;8.284;2022-12-07T07:08:10;5.10;99.90
32097;DHT22;18610;49.916;8.284;2022-12-07T07:10:37;5.00;99.90
32097;DHT22;18610;49.916;8.284;2022-12-07T07:13:04;5.00;99.90
32097;DHT22;18610;49.916;8.284;2022-12-07T07:15:31;5.00;99.90
32097;DHT22;18610;49.916;8.284;2022-12-07T07:17:58;5.00;99.90
32097;DHT22;18610;49.916;8.284;2022-12-07T07:20:25;5.00;99.90
32097;DHT22;18610;49.916;8.284;2022-12-07T07:22:54;5.00;99.90
32097;DHT22;18610;49.916;8.284;2022-12-07T07:25:22;5.00;99.90
32097;DHT22;18610;49.916;8.284;2022-12-07T07:27:49;5.00;99.90
32097;DHT22;18610;49.916;8.284;2022-12-07T07:30:16;5.00;99.90
32097;DHT22;18610;49.916;8.284;2022-12-07T07:32:43;5.00;99.90
32097;DHT22;18610;49.916;8.284;2022-12-07T07:35:10;5.00;99.90
32097;DHT22;18610;49.916;8.284;2022-12-07T07:37:36;5.00;99.90
32097;DHT22;18610;49.916;8.284;2022-12-07T07:40:04;5.00;99.90
32097;DHT22;18610;49.916;8.284;2022-12-07T07:42:32;5.00;99.90
32097;DHT22;18610;49.916;8.284;2022-12-07T07:44:59;5.00;99.90
32097;DHT22;18610;49.916;8.284;2022-12-07T07:47:26;5.00;99.90
32097;DHT22;18610;49.916;8.284;2022-12-07T07:49:54;5.00;99.90
32097;DHT22;18610;49.916;8.284;2022-12-07T07:52:21;5.00;99.90
32097;DHT22;18610;49.916;8.284;2022-12-07T07:54:47;5.00;99.90
32097;DHT22;18610;49.916;8.284;2022-12-07T07:57:15;5.00;99.90
32097;DHT22;18610;49.916;8.284;2022-12-07T07:59:44;5.10;99.90
32097;DHT22;18610;49.916;8.284;2022-12-07T08:02:14;5.10;99.90
32097;DHT22;18610;49.916;8.284;2022-12-07T08:04:41;5.10;99.90
32097;DHT22;18610;49.916;8.284;2022-12-07T08:07:08;5.10;99.90
32097;DHT22;18610;49.916;8.284;2022-12-07T08:09:34;5.10;99.90
32097;DHT22;18610;49.916;8.284;2022-12-07T08:12:02;5.10;99.90
32097;DHT22;18610;49.916;8.284;2022-12-07T08:14:28;5.10;99.90
32097;DHT22;18610;49.916;8.284;2022-12-07T08:16:57;5.10;99.90
32097;DHT22;18610;49.916;8.284;2022-12-07T08:19:24;5.20;99.90
32097;DHT22;18610;49.916;8.284;2022-12-07T08:21:51;5.20;99.90
32097;DHT22;18610;49.916;8.284;2022-12-07T08:24:18;5.20;99.90
32097;DHT22;18610;49.916;8.284;2022-12-07T08:26:45;5.20;99.90
32097;DHT22;18610;49.916;8.284;2022-12-07T08:29:12;5.20;99.90
32097;DHT22;18610;49.916;8.284;2022-12-07T08:31:39;5.30;99.90
32097;DHT22;18610;49.916;8.284;2022-12-07T08:34:07;5.30;99.90
32097;DHT22;18610;49.916;8.284;2022-12-07T08:36:33;5.30;99.90
32097;DHT22;18610;49.916;8.284;2022-12-07T08:39:00;5.30;99.90
32097;DHT22;18610;49.916;8.284;2022-12-07T08:41:27;5.40;99.90
32097;DHT22;18610;49.916;8.284;2022-12-07T08:43:54;5.40;99.90
32097;DHT22;18610;49.916;8.284;2022-12-07T08:46:23;5.40;99.90
32097;DHT22;18610;49.916;8.284;2022-12-07T08:48:55;5.40;99.90
32097;DHT22;18610;49.916;8.284;2022-12-07T08:51:25;5.50;99.90
32097;DHT22;18610;49.916;8.284;2022-12-07T08:53:54;5.50;99.90
32097;DHT22;18610;49.916;8.284;2022-12-07T08:56:22;5.50;99.90
32097;DHT22;18610;49.916;8.284;2022-12-07T08:58:49;5.50;99.90
32097;DHT22;18610;49.916;8.284;2022-12-07T09:01:16;5.60;99.90
32097;DHT22;18610;49.916;8.284;2022-12-07T09:03:43;5.60;99.90
32097;DHT22;18610;49.916;8.284;2022-12-07T09:06:10;5.70;99.90
32097;DHT22;18610;49.916;8.284;2022-12-07T09:08:42;5.70;99.90
32097;DHT22;18610;49.916;8.284;2022-12-07T09:11:11;5.80;99.90
32097;DHT22;18610;49.916;8.284;2022-12-07T09:13:37;5.90;99.90
32097;DHT22;18610;49.916;8.284;2022-12-07T09:16:05;5.90;99.90
32097;DHT22;18610;49.916;8.284;2022-12-07T09:18:32;5.90;99.90
32097;DHT22;18610;49.916;8.284;2022-12-07T09:20:59;5.80;99.90
32097;DHT22;18610;49.916;8.284;2022-12-07T09:23:25;5.90;99.90
32097;DHT22;18610;49.916;8.284;2022-12-07T09:25:54;5.80;99.90
32097;DHT22;18610;49.916;8.284;2022-12-07T09:28:20;5.80;99.90
32097;DHT22;18610;49.916;8.284;2022-12-07T09:30:48;5.80;99.90
32097;DHT22;18610;49.916;8.284;2022-12-07T09:33:15;5.80;99.90
32097;DHT22;18610;49.916;8.284;2022-12-07T09:35:44;5.80;99.90
32097;DHT22;18610;49.916;8.284;2022-12-07T09:38:11;5.80;99.90
32097;DHT22;18610;49.916;8.284;2022-12-07T09:40:38;5.70;99.90
32097;DHT22;18610;49.916;8.284;2022-12-07T09:43:12;5.80;99.90
32097;DHT22;18610;49.916;8.284;2022-12-07T09:45:40;5.70;99.90
32097;DHT22;18610;49.916;8.284;2022-12-07T09:48:14;5.80;99.90
32097;DHT22;18610;49.916;8.284;2022-12-07T09:50:43;5.80;99.90
32097;DHT22;18610;49.916;8.284;2022-12-07T09:53:14;5.80;99.90
32097;DHT22;18610;49.916;8.284;2022-12-07T09:55:43;6.00;99.90
32097;DHT22;18610;49.916;8.284;2022-12-07T09:58:19;6.10;99.90
32097;DHT22;18610;49.916;8.284;2022-12-07T10:00:47;6.10;99.90
32097;DHT22;18610;49.916;8.284;2022-12-07T10:03:14;6.30;99.90
32097;DHT22;18610;49.916;8.284;2022-12-07T10:05:44;6.30;99.90
32097;DHT22;18610;49.916;8.284;2022-12-07T10:08:12;6.50;99.90
32097;DHT22;18610;49.916;8.284;2022-12-07T10:10:41;6.80;99.90
32097;DHT22;18610;49.916;8.284;2022-12-07T10:13:10;7.00;99.90
32097;DHT22;18610;49.916;8.284;2022-12-07T10:15:56;7.10;99.90
32097;DHT22;18610;49.916;8.284;2022-12-07T10:18:29;7.20;99.90
32097;DHT22;18610;49.916;8.284;2022-12-07T10:21:02;7.20;99.90
32097;DHT22;18610;49.916;8.284;2022-12-07T10:23:28;7.20;99.90
32097;DHT22;18610;49.916;8.284;2022-12-07T10:25:55;7.20;99.90
32097;DHT22;18610;49.916;8.284;2022-12-07T10:28:23;7.20;99.90
32097;DHT22;18610;49.916;8.284;2022-12-07T10:30:52;7.10;99.90
32097;DHT22;18610;49.916;8.284;2022-12-07T10:33:35;7.10;99.90
32097;DHT22;18610;49.916;8.284;2022-12-07T10:36:17;7.20;99.90
32097;DHT22;18610;49.916;8.284;2022-12-07T10:38:46;7.30;99.90
32097;DHT22;18610;49.916;8.284;2022-12-07T10:41:13;7.40;99.90
32097;DHT22;18610;49.916;8.284;2022-12-07T10:43:47;7.60;99.90
32097;DHT22;18610;49.916;8.284;2022-12-07T10:46:37;7.80;99.90
32097;DHT22;18610;49.916;8.284;2022-12-07T10:52:02;8.20;99.90
32097;DHT22;18610;49.916;8.284;2022-12-07T10:54:40;8.30;99.90
32097;DHT22;18610;49.916;8.284;2022-12-07T10:57:24;8.50;99.90
32097;DHT22;18610;49.916;8.284;2022-12-07T11:00:11;8.80;99.90
32097;DHT22;18610;49.916;8.284;2022-12-07T11:05:52;9.00;99.90
32097;DHT22;18610;49.916;8.284;2022-12-07T11:08:31;8.90;99.90
32097;DHT22;18610;49.916;8.284;2022-12-07T11:11:08;8.70;99.90
32097;DHT22;18610;49.916;8.284;2022-12-07T11:13:37;8.50;99.90
32097;DHT22;18610;49.916;8.284;2022-12-07T11:16:28;8.40;99.90
32097;DHT22;18610;49.916;8.284;2022-12-07T11:19:16;8.30;99.90
32097;DHT22;18610;49.916;8.284;2022-12-07T11:21:56;8.30;99.90
32097;DHT22;18610;49.916;8.284;2022-12-07T11:24:30;8.20;99.90
32097;DHT22;18610;49.916;8.284;2022-12-07T11:27:09;8.10;99.90
32097;DHT22;18610;49.916;8.284;2022-12-07T11:30:03;8.10;99.90
32097;DHT22;18610;49.916;8.284;2022-12-07T11:32:56;8.10;99.90
32097;DHT22;18610;49.916;8.284;2022-12-07T11:35:34;8.00;99.90
32097;DHT22;18610;49.916;8.284;2022-12-07T11:38:10;8.00;99.90
32097;DHT22;18610;49.916;8.284;2022-12-07T11:40:38;8.00;99.90
32097;DHT22;18610;49.916;8.284;2022-12-07T11:43:13;8.00;99.90
32097;DHT22;18610;49.916;8.284;2022-12-07T11:45:44;8.00;99.90
32097;DHT22;18610;49.916;8.284;2022-12-07T11:48:15;8.00;99.90
32097;DHT22;18610;49.916;8.284;2022-12-07T11:50:47;8.00;99.90
32097;DHT22;18610;49.916;8.284;2022-12-07T11:53:18;8.10;99.90
32097;DHT22;18610;49.916;8.284;2022-12-07T11:55:50;8.20;99.90
32097;DHT22;18610;49.916;8.284;2022-12-07T11:58:39;8.40;99.90
32097;DHT22;18610;49.916;8.284;2022-12-07T12:01:14;8.60;99.90
32097;DHT22;18610;49.916;8.284;2022-12-07T12:03:47;8.70;99.90
32097;DHT22;18610;49.916;8.284;2022-12-07T12:06:14;8.70;99.90
32097;DHT22;18610;49.916;8.284;2022-12-07T12:08:47;8.60;99.90
32097;DHT22;18610;49.916;8.284;2022-12-07T12:11:29;8.60;99.90
32097;DHT22;18610;49.916;8.284;2022-12-07T12:14:18;8.60;99.90
32097;DHT22;18610;49.916;8.284;2022-12-07T12:17:11;8.50;99.90
32097;DHT22;18610;49.916;8.284;2022-12-07T12:19:41;8.40;99.90
32097;DHT22;18610;49.916;8.284;2022-12-07T12:22:13;8.30;99.90
32097;DHT22;18610;49.916;8.284;2022-12-07T12:24:43;8.30;99.90
32097;DHT22;18610;49.916;8.284;2022-12-07T12:27:25;8.20;99.90
32097;DHT22;18610;49.916;8.284;2022-12-07T12:29:55;8.20;99.90
32097;DHT22;18610;49.916;8.284;2022-12-07T12:32:31;8.20;99.90
32097;DHT22;18610;49.916;8.284;2022-12-07T12:35:22;8.20;99.90
32097;DHT22;18610;49.916;8.284;2022-12-07T12:37:52;8.10;99.90
32097;DHT22;18610;49.916;8.284;2022-12-07T12:40:42;8.10;99.90
32097;DHT22;18610;49.916;8.284;2022-12-07T12:43:48;8.20;99.90
32097;DHT22;18610;49.916;8.284;2022-12-07T12:46:48;8.20;99.90
32097;DHT22;18610;49.916;8.284;2022-12-07T12:49:43;8.70;99.90
32097;DHT22;18610;49.916;8.284;2022-12-07T12:55:17;9.50;99.90
32097;DHT22;18610;49.916;8.284;2022-12-07T12:57:47;9.50;99.90
32097;DHT22;18610;49.916;8.284;2022-12-07T13:00:35;9.40;99.90
32097;DHT22;18610;49.916;8.284;2022-12-07T13:03:21;9.50;99.90
32097;DHT22;18610;49.916;8.284;2022-12-07T13:06:18;10.20;99.90
32097;DHT22;18610;49.916;8.284;2022-12-07T13:08:46;11.10;99.90
32097;DHT22;18610;49.916;8.284;2022-12-07T13:11:17;12.00;99.70
32097;DHT22;18610;49.916;8.284;2022-12-07T13:13:45;13.10;95.80
32097;DHT22;18610;49.916;8.284;2022-12-07T13:16:40;13.80;94.30
32097;DHT22;18610;49.916;8.284;2022-12-07T13:22:44;15.40;86.80
32097;DHT22;18610;49.916;8.284;2022-12-07T13:25:23;16.20;81.80
32097;DHT22;18610;49.916;8.284;2022-12-07T13:27:59;16.50;77.80
32097;DHT22;18610;49.916;8.284;2022-12-07T13:30:28;16.80;77.40
32097;DHT22;18610;49.916;8.284;2022-12-07T13:32:58;17.40;74.90
32097;DHT22;18610;49.916;8.284;2022-12-07T13:35:33;18.00;69.50
32097;DHT22;18610;49.916;8.284;2022-12-07T13:38:02;18.50;64.80
32097;DHT22;18610;49.916;8.284;2022-12-07T13:40:30;18.50;63.60
32097;DHT22;18610;49.916;8.284;2022-12-07T13:42:58;18.00;62.80
32097;DHT22;18610;49.916;8.284;2022-12-07T13:45:27;17.40;64.20
32097;DHT22;18610;49.916;8.284;2022-12-07T13:48:14;16.60;66.60
32097;DHT22;18610;49.916;8.284;2022-12-07T13:50:41;15.40;68.70
32097;DHT22;18610;49.916;8.284;2022-12-07T13:53:12;14.70;72.00
32097;DHT22;18610;49.916;8.284;2022-12-07T13:55:44;14.80;74.70
32097;DHT22;18610;49.916;8.284;2022-12-07T13:58:12;15.40;75.00
32097;DHT22;18610;49.916;8.284;2022-12-07T14:00:40;15.90;72.00
32097;DHT22;18610;49.916;8.284;2022-12-07T14:03:30;16.70;69.90
32097;DHT22;18610;49.916;8.284;2022-12-07T14:06:25;17.50;66.40
32097;DHT22;18610;49.916;8.284;2022-12-07T14:09:07;18.10;63.20
32097;DHT22;18610;49.916;8.284;2022-12-07T14:11:34;18.30;61.30
32097;DHT22;18610;49.916;8.284;2022-12-07T14:14:02;17.40;61.80
32097;DHT22;18610;49.916;8.284;2022-12-07T14:16:32;16.40;64.00
32097;DHT22;18610;49.916;8.284;2022-12-07T14:19:03;15.40;67.80
32097;DHT22;18610;49.916;8.284;2022-12-07T14:21:32;14.30;72.30
32097;DHT22;18610;49.916;8.284;2022-12-07T14:24:15;13.30;77.30
32097;DHT22;18610;49.916;8.284;2022-12-07T14:26:43;12.60;82.80
32097;DHT22;18610;49.916;8.284;2022-12-07T14:29:22;12.00;87.80
32097;DHT22;18610;49.916;8.284;2022-12-07T14:31:49;11.30;91.40
32097;DHT22;18610;49.916;8.284;2022-12-07T14:34:20;10.80;91.70
32097;DHT22;18610;49.916;8.284;2022-12-07T14:36:47;10.20;94.20
32097;DHT22;18610;49.916;8.284;2022-12-07T14:39:13;9.80;96.80
32097;DHT22;18610;49.916;8.284;2022-12-07T14:41:40;9.60;98.50
32097;DHT22;18610;49.916;8.284;2022-12-07T14:44:20;9.40;99.90
32097;DHT22;18610;49.916;8.284;2022-12-07T14:46:48;9.20;99.90
32097;DHT22;18610;49.916;8.284;2022-12-07T14:49:14;9.00;99.90
32097;DHT22;18610;49.916;8.284;2022-12-07T14:51:44;8.90;99.90
32097;DHT22;18610;49.916;8.284;2022-12-07T14:54:14;8.80;99.90
32097;DHT22;18610;49.916;8.284;2022-12-07T14:56:42;8.80;99.90
32097;DHT22;18610;49.916;8.284;2022-12-07T14:59:09;8.70;99.90
32097;DHT22;18610;49.916;8.284;2022-12-07T15:01:36;8.60;99.90
32097;DHT22;18610;49.916;8.284;2022-12-07T15:04:03;8.50;99.90
32097;DHT22;18610;49.916;8.284;2022-12-07T15:06:30;8.40;99.90
32097;DHT22;18610;49.916;8.284;2022-12-07T15:08:58;8.20;99.90
32097;DHT22;18610;49.916;8.284;2022-12-07T15:11:25;8.00;99.90
32097;DHT22;18610;49.916;8.284;2022-12-07T15:13:51;7.90;99.90
32097;DHT22;18610;49.916;8.284;2022-12-07T15:16:40;7.90;99.90
32097;DHT22;18610;49.916;8.284;2022-12-07T15:19:12;7.80;99.90
32097;DHT22;18610;49.916;8.284;2022-12-07T15:21:39;7.70;99.90
32097;DHT22;18610;49.916;8.284;2022-12-07T15:24:08;7.70;99.90
32097;DHT22;18610;49.916;8.284;2022-12-07T15:26:35;7.60;99.90
32097;DHT22;18610;49.916;8.284;2022-12-07T15:29:02;7.50;99.90
32097;DHT22;18610;49.916;8.284;2022-12-07T15:31:29;7.40;99.90
32097;DHT22;18610;49.916;8.284;2022-12-07T15:33:56;7.30;99.90
32097;DHT22;18610;49.916;8.284;2022-12-07T15:36:24;7.30;99.90
32097;DHT22;18610;49.916;8.284;2022-12-07T15:38:52;7.30;99.90
32097;DHT22;18610;49.916;8.284;2022-12-07T15:41:21;7.20;99.90
32097;DHT22;18610;49.916;8.284;2022-12-07T15:43:48;7.20;99.90
32097;DHT22;18610;49.916;8.284;2022-12-07T15:46:33;7.20;99.90
32097;DHT22;18610;49.916;8.284;2022-12-07T15:49:03;7.10;99.90
32097;DHT22;18610;49.916;8.284;2022-12-07T15:51:30;7.10;99.90
32097;DHT22;18610;49.916;8.284;2022-12-07T15:53:57;7.00;99.90
32097;DHT22;18610;49.916;8.284;2022-12-07T15:56:25;7.00;99.90
32097;DHT22;18610;49.916;8.284;2022-12-07T15:58:52;7.00;99.90
32097;DHT22;18610;49.916;8.284;2022-12-07T16:01:19;6.90;99.90
32097;DHT22;18610;49.916;8.284;2022-12-07T16:03:46;6.90;99.90
32097;DHT22;18610;49.916;8.284;2022-12-07T16:06:16;6.80;99.90
32097;DHT22;18610;49.916;8.284;2022-12-07T16:08:43;6.80;99.90
32097;DHT22;18610;49.916;8.284;2022-12-07T16:11:10;6.80;99.90
32097;DHT22;18610;49.916;8.284;2022-12-07T16:13:38;6.70;99.90
32097;DHT22;18610;49.916;8.284;2022-12-07T16:16:07;6.70;99.90
32097;DHT22;18610;49.916;8.284;2022-12-07T16:18:34;6.60;99.90
32097;DHT22;18610;49.916;8.284;2022-12-07T16:21:00;6.60;99.90